Date,TemperatureHighF,TemperatureAvgF,TemperatureLowF,DewpointHighF,DewpointAvgF,DewpointLowF,HumidityHigh,HumidityAvg,HumidityLow,PressureMaxIn,PressureMinIn,WindSpeedMaxMPH,WindSpeedAvgMPH,GustSpeedMaxMPH,PrecipitationSumIn
2013-1-1,24,22,20,18,16,14,90,80,66,30.32,30.20,7,2,13,0.00
2013-1-2,26,24,21,21,20,15,88,84,78,30.29,30.19,5,1,9,0.00
2013-1-3,29,27,24,25,23,22,91,85,78,30.25,30.14,10,3,14,0.00
2013-1-4,33,27,25,28,23,21,94,86,79,30.26,30.07,15,4,19,0.00
2013-1-5,36,30,20,32,26,18,96,87,76,30.36,30.02,8,1,12,0.03
2013-1-6,36,31,25,30,26,20,90,81,74,30.41,29.96,8,3,11,0.01
2013-1-7,40,33,23,31,26,18,86,77,65,30.42,30.08,7,2,16,0.04
2013-1-8,43,35,28,34,30,27,96,83,68,30.29,30.11,4,1,11,0.07
2013-1-9,39,37,34,34,30,28,85,77,70,30.56,29.96,19,5,24,0.03
2013-1-10,42,34,25,30,27,23,95,77,59,30.68,30.23,4,0,9,0.00
2013-1-11,45,39,35,44,38,31,99,96,75,30.22,29.79,5,1,11,0.37
2013-1-12,48,42,34,46,37,28,97,84,66,30.09,29.74,12,2,20,0.01
2013-1-13,33,30,25,29,26,20,93,88,80,30.17,29.99,9,2,12,0.00
2013-1-14,26,22,20,21,16,14,88,78,66,30.54,30.18,11,4,15,0.00
2013-1-15,30,23,14,20,16,10,86,76,65,30.56,30.23,15,2,16,0.00
2013-1-16,32,27,22,29,23,18,95,84,71,30.23,29.82,9,3,16,0.00
2013-1-17,26,18,15,19,12,6,89,76,64,30.52,30.16,15,6,20,0.00
2013-1-18,38,23,12,33,18,6,86,80,68,30.55,29.91,8,1,13,0.04
2013-1-19,40,36,28,37,33,24,96,89,75,29.98,29.61,18,3,26,0.14
2013-1-20,27,16,14,23,12,7,91,81,69,30.33,29.69,22,9,32,0.00
2013-1-21,14,7,0,11,4,-3,91,88,87,30.31,30.17,12,6,14,0.00
2013-1-22,8,4,0,5,1,-3,89,88,86,30.45,30.30,8,4,12,0.00
2013-1-23,14,11,8,12,9,5,92,90,88,30.44,30.24,6,1,9,0.00
2013-1-24,17,10,4,13,7,1,92,86,80,30.83,30.41,2,0,5,0.00
2013-1-25,22,16,10,18,13,6,93,87,83,30.64,30.14,4,0,7,0.00
2013-1-26,30,23,16,24,19,11,92,85,73,30.56,30.22,7,0,8,0.00
2013-1-27,33,27,21,27,23,19,95,84,66,30.57,30.19,5,1,9,0.00
2013-1-28,34,32,28,33,30,27,97,95,93,30.19,29.97,4,0,8,0.00
2013-1-29,50,39,32,49,38,30,99,96,93,30.14,29.61,10,1,11,1.17
2013-1-30,35,31,22,35,30,20,98,96,90,29.62,29.29,10,2,12,0.15
2013-1-31,22,18,16,21,15,11,94,88,79,30.06,29.44,14,8,17,0.00
2013-2-1,17,14,9,13,9,6,89,82,73,30.33,30.07,13,6,17,0.00
2013-2-2,21,13,9,13,8,5,91,82,59,30.30,30.20,6,1,11,0.00
2013-2-3,17,14,10,13,9,6,90,81,67,30.19,30.02,11,3,14,0.00
2013-2-4,18,12,1,9,5,-2,90,75,61,30.18,30.11,5,1,8,0.01
2013-2-5,24,14,-5,21,10,-8,93,84,71,30.20,29.90,10,2,12,0.00
2013-2-6,30,20,7,24,15,4,93,79,64,30.43,30.20,9,0,10,0.00
2013-2-7,32,28,24,29,26,22,95,92,87,30.36,30.20,5,0,8,0.00
2013-2-8,26,20,-1,22,17,-4,93,87,73,30.58,30.23,8,1,10,0.00
2013-2-9,35,12,-9,20,6,-12,95,78,54,30.61,30.38,3,0,9,0.03
2013-2-10,37,29,19,36,25,16,96,84,68,30.38,29.64,7,1,13,0.38
2013-2-11,41,35,29,40,32,22,98,91,74,29.96,29.52,15,4,23,0.38
2013-2-12,29,27,25,25,22,21,89,83,74,30.14,29.97,11,4,17,0.00
2013-2-13,38,31,24,31,28,21,95,87,73,30.01,29.83,4,0,7,0.01
2013-2-14,35,31,24,34,29,20,97,95,85,30.05,29.73,14,2,19,0.06
2013-2-15,23,21,17,20,16,14,92,83,75,30.30,30.05,10,4,14,0.00
2013-2-16,22,16,12,16,11,6,93,79,57,30.33,30.23,7,1,11,0.00
2013-2-17,24,15,7,15,10,4,94,81,66,30.38,30.27,4,0,11,0.00
2013-2-18,45,30,16,36,22,11,96,71,52,30.27,29.54,10,2,13,0.38
2013-2-19,39,26,15,38,23,10,97,90,79,30.07,29.36,24,11,28,0.12
2013-2-20,22,18,16,18,14,11,91,84,77,30.49,30.08,16,7,21,0.00
2013-2-21,23,20,15,17,15,12,89,81,72,30.61,30.46,6,1,12,0.00
2013-2-22,30,26,19,26,23,13,93,88,76,30.45,29.97,12,2,18,0.00
2013-2-23,32,28,25,30,26,24,96,92,82,30.01,29.91,4,0,9,0.00
2013-2-24,36,30,26,28,27,24,97,88,71,30.30,29.99,4,1,7,0.13
2013-2-25,39,31,22,29,27,19,96,83,63,30.36,30.28,1,0,3,0.05
2013-2-26,38,33,28,29,26,23,92,77,64,30.32,29.90,15,2,15,0.03
2013-2-27,36,33,31,32,30,28,95,89,81,29.89,29.78,8,2,12,0.07
2013-2-28,33,31,26,31,26,18,94,81,68,30.26,29.86,12,3,15,0.00
2013-3-1,26,22,14,18,16,10,84,77,72,30.41,30.26,5,2,12,0.00
2013-3-2,26,19,5,20,14,3,93,82,73,30.39,30.31,9,2,11,0.01
2013-3-3,25,18,7,18,14,5,93,83,71,30.30,30.25,8,1,11,0.00
2013-3-4,31,20,8,21,14,6,93,80,53,30.36,30.30,7,1,8,0.00
2013-3-5,36,20,3,25,15,0,94,80,56,30.35,30.16,8,1,13,0.00
2013-3-6,41,32,27,30,28,22,95,84,65,30.45,30.25,7,2,9,0.00
2013-3-7,31,27,25,25,21,18,91,79,62,30.62,30.45,6,1,8,0.00
2013-3-8,42,28,16,27,22,14,95,80,47,30.69,30.54,4,0,7,0.00
2013-3-9,44,32,16,34,24,14,96,76,45,30.54,30.10,6,1,10,0.24
2013-3-10,43,38,35,42,37,34,98,96,90,30.10,29.93,5,1,9,0.61
2013-3-11,45,39,31,42,38,30,99,97,91,29.90,29.59,7,1,9,0.23
2013-3-12,31,28,23,29,25,18,95,88,77,30.04,29.71,8,3,11,0.00
2013-3-13,29,25,21,20,18,13,93,76,54,30.40,30.04,13,5,20,0.00
2013-3-14,36,27,19,24,20,16,90,74,54,30.42,30.17,6,2,10,0.00
2013-3-15,34,30,24,31,24,15,90,76,62,30.16,30.03,11,3,16,0.00
2013-3-16,27,22,14,18,15,10,91,77,61,30.22,30.06,6,1,10,0.00
2013-3-17,29,22,14,21,12,7,91,66,43,30.52,30.22,9,2,15,0.00
2013-3-18,42,28,17,29,20,10,94,75,40,30.37,29.65,8,1,13,0.01
2013-3-19,30,25,21,29,21,17,95,86,67,30.02,29.64,14,5,21,0.00
2013-3-20,26,22,19,20,15,12,89,75,61,30.09,30.02,16,7,19,0.00
2013-3-21,28,26,22,24,22,18,91,84,75,30.15,30.03,12,5,16,0.00
2013-3-22,32,28,23,27,24,19,89,82,76,30.23,30.13,7,2,10,0.02
2013-3-23,35,31,27,30,25,23,87,81,69,30.30,30.23,5,1,7,0.04
2013-3-24,37,32,24,28,24,20,87,74,53,30.27,30.00,11,1,12,0.00
2013-3-25,39,33,24,29,26,20,87,75,58,30.18,29.99,7,2,11,0.00
2013-3-26,39,34,31,33,29,25,94,83,62,30.33,30.18,7,2,10,0.01
2013-3-27,40,34,28,31,28,25,90,79,63,30.40,30.31,9,3,13,0.00
2013-3-28,44,34,26,30,25,22,88,70,47,30.45,30.40,5,1,7,0.00
2013-3-29,46,32,18,29,22,17,96,70,35,30.48,30.39,3,0,6,0.00
2013-3-30,51,36,22,39,24,19,96,64,32,30.39,29.95,5,0,7,0.14
2013-3-31,41,37,29,38,34,20,98,90,67,29.95,29.75,17,3,22,0.15
2013-4-1,29,26,24,21,18,13,85,71,59,30.27,29.95,20,8,20,0.00
2013-4-2,34,28,18,21,16,12,86,63,46,30.44,30.24,12,5,19,0.00
2013-4-3,38,30,22,21,18,14,77,61,47,30.63,30.44,8,2,13,0.00
2013-4-4,45,35,25,38,26,15,95,71,48,30.44,30.11,12,2,16,0.03
2013-4-5,36,31,27,28,22,17,81,67,50,30.41,30.20,9,2,12,0.00
2013-4-6,45,35,27,35,27,18,87,72,59,30.38,29.71,7,1,14,0.03
2013-4-7,47,37,29,44,34,28,96,86,67,30.20,29.59,14,5,17,0.19
2013-4-8,41,35,28,39,33,27,97,91,77,30.18,29.92,6,0,7,0.26
2013-4-9,42,37,33,39,36,31,98,95,87,30.27,30.17,5,1,7,0.34
2013-4-10,40,36,32,35,33,31,97,89,77,30.30,30.21,5,1,9,0.53
2013-4-11,36,34,31,30,27,24,96,78,63,30.24,29.91,9,2,18,0.07
2013-4-12,37,33,30,35,31,29,97,93,89,29.92,29.76,5,0,8,0.23
2013-4-13,36,33,31,33,30,27,97,88,71,30.08,29.86,12,3,16,0.28
2013-4-14,43,35,22,34,28,21,97,78,53,30.25,30.03,6,1,11,0.17
2013-4-15,52,44,38,51,41,32,98,90,76,30.04,29.88,4,1,13,0.14
2013-4-16,46,39,31,38,31,29,95,74,53,30.48,30.05,12,2,14,0.00
2013-4-17,50,38,27,39,32,25,97,80,52,30.57,30.21,6,0,10,0.08
2013-4-18,50,42,37,47,41,35,99,95,87,30.21,29.48,2,0,8,0.54
2013-4-19,56,37,28,55,31,19,99,79,60,29.87,29.38,16,6,24,0.03
2013-4-20,34,28,24,23,20,16,91,71,51,30.63,29.88,16,6,20,0.00
2013-4-21,52,35,20,29,20,15,95,61,25,30.78,30.51,7,1,13,0.00
2013-4-22,62,47,36,34,30,28,84,54,30,30.50,30.26,6,1,11,0.00
2013-4-23,54,41,33,44,36,31,96,81,59,30.25,30.01,9,1,13,0.20
2013-4-24,48,37,33,32,28,21,93,73,37,30.15,30.07,7,2,11,0.10
2013-4-25,46,39,34,35,31,26,91,73,48,30.44,30.06,17,4,19,0.01
2013-4-26,66,47,32,41,34,29,89,64,30,30.49,30.29,8,1,13,0.00
2013-4-27,68,56,46,50,44,34,97,67,40,30.36,30.21,3,0,5,0.08
2013-4-28,74,53,37,43,39,35,95,64,26,30.21,29.94,3,0,7,0.00
2013-4-29,66,52,43,55,49,39,99,90,61,30.00,29.95,3,0,6,0.11
2013-4-30,81,65,50,61,56,49,99,77,47,30.01,29.88,11,2,19,0.37
2013-5-1,71,61,46,60,52,36,89,73,61,30.40,29.99,5,1,11,0.00
2013-5-2,53,45,39,44,38,35,89,78,62,30.44,30.34,10,3,15,0.00
2013-5-3,62,46,36,49,41,35,94,82,60,30.38,30.19,5,1,8,0.02
2013-5-4,80,59,40,49,43,36,96,63,28,30.26,30.16,5,1,9,0.00
2013-5-5,78,60,42,48,39,35,83,50,23,30.25,30.14,7,1,12,0.00
2013-5-6,74,56,42,45,40,34,91,61,23,30.23,30.12,8,1,9,0.00
2013-5-7,82,61,43,46,40,32,87,53,19,30.22,30.11,7,1,8,0.00
2013-5-8,78,61,46,50,44,39,91,59,24,30.16,30.08,6,1,8,0.00
2013-5-9,70,54,44,50,45,40,93,73,41,30.16,30.06,8,2,11,0.06
2013-5-10,44,42,40,43,40,38,96,92,86,30.15,30.09,6,1,11,0.62
2013-5-11,48,40,35,45,38,32,98,90,67,30.10,29.87,16,3,21,0.09
2013-5-12,40,37,34,36,32,28,93,80,66,30.25,29.98,21,10,24,0.00
2013-5-13,52,42,30,33,26,19,88,56,29,30.33,30.18,8,2,12,0.00
2013-5-14,68,54,40,47,39,27,81,58,37,30.18,29.70,4,1,11,0.01
2013-5-15,71,60,52,52,46,41,81,62,34,29.90,29.58,12,4,19,0.00
2013-5-16,63,55,46,47,42,39,89,65,43,30.21,29.89,7,2,11,0.00
2013-5-17,64,53,41,48,43,39,93,72,46,30.33,30.20,3,0,6,0.00
2013-5-18,78,62,51,49,46,44,84,60,32,30.31,30.12,6,1,12,0.00
2013-5-19,84,68,54,62,55,45,92,64,48,30.12,29.93,4,0,12,0.00
2013-5-20,87,69,56,69,62,54,96,79,47,29.97,29.79,4,0,12,0.00
2013-5-21,82,65,54,65,60,54,98,86,48,29.86,29.73,3,0,9,0.35
2013-5-22,62,55,53,59,55,52,99,97,90,29.87,29.77,3,0,5,0.45
2013-5-23,53,45,40,52,41,34,98,85,60,30.41,29.87,7,2,13,0.33
2013-5-24,54,44,34,39,36,32,94,74,52,30.58,30.42,6,2,10,0.00
2013-5-25,63,49,36,43,37,32,98,68,33,30.60,30.45,9,1,11,0.00
2013-5-26,69,53,37,45,38,29,98,64,25,30.52,30.36,4,0,7,0.00
2013-5-27,76,59,42,43,38,31,88,53,20,30.38,30.10,6,1,8,0.00
2013-5-28,60,57,55,60,52,40,98,84,48,30.09,29.86,3,0,7,0.28
2013-5-29,79,62,53,67,58,52,99,89,61,30.05,29.86,4,0,6,0.00
2013-5-30,89,75,59,69,65,58,99,74,46,30.03,29.92,8,1,11,0.10
2013-5-31,80,72,66,68,65,62,96,78,58,29.95,29.84,4,1,10,0.00
2013-6-1,80,70,61,67,64,57,97,82,62,29.85,29.72,4,0,6,0.27
2013-6-2,60,48,39,59,44,36,97,88,70,30.17,29.70,13,4,17,0.17
2013-6-3,63,50,37,46,41,37,98,75,47,30.27,30.16,10,2,13,0.00
2013-6-4,64,52,39,47,41,30,98,72,35,30.35,30.28,4,0,7,0.00
2013-6-5,60,53,46,54,49,42,96,86,68,30.33,30.20,1,0,4,0.08
2013-6-6,70,60,49,48,44,41,82,58,39,30.21,30.06,5,1,10,0.00
2013-6-7,68,58,49,51,46,40,91,67,45,30.11,30.02,7,2,8,0.00
2013-6-8,71,58,46,55,48,44,97,73,43,30.18,30.05,6,0,8,0.00
2013-6-9,80,64,47,58,53,45,96,70,47,30.23,30.06,4,1,7,0.00
2013-6-10,75,65,57,64,58,52,94,80,65,30.06,29.90,3,0,6,0.02
2013-6-11,80,66,57,66,60,56,98,84,59,30.01,29.90,8,1,8,0.00
2013-6-12,81,66,56,62,56,45,98,74,31,30.03,29.85,3,0,6,0.00
2013-6-13,66,58,54,56,52,50,92,80,59,30.15,29.84,14,3,15,0.00
2013-6-14,74,58,46,53,43,28,98,64,24,30.26,30.15,8,1,10,0.00
2013-6-15,74,63,47,63,54,42,93,74,46,30.17,29.93,1,0,4,0.00
2013-6-16,78,68,58,65,60,53,99,78,49,29.97,29.85,7,2,13,1.10
2013-6-17,72,62,54,59,56,52,95,81,64,30.12,29.95,7,2,11,0.01
2013-6-18,71,60,48,54,47,40,98,67,35,30.23,30.12,5,1,10,0.00
2013-6-19,74,60,47,55,48,41,98,68,35,30.30,30.22,7,1,9,0.00
2013-6-20,85,68,51,61,54,48,97,67,36,30.28,30.21,3,0,4,0.00
2013-6-21,86,71,59,68,61,55,91,73,52,30.26,30.02,5,1,14,0.00
2013-6-22,75,66,61,65,62,59,96,86,68,30.18,30.07,7,1,12,0.00
2013-6-23,90,74,61,72,67,60,98,81,55,30.12,29.94,2,0,7,0.06
2013-6-24,85,76,67,72,69,65,94,79,60,30.06,29.95,5,1,9,0.00
2013-6-25,80,73,67,69,66,64,91,80,63,29.97,29.91,4,1,8,0.00
2013-6-26,88,72,62,70,66,62,99,81,48,29.93,29.84,6,1,10,0.00
2013-6-27,84,70,63,69,64,59,95,81,57,29.89,29.77,11,1,12,0.00
2013-6-28,74,67,59,65,61,57,96,83,69,29.77,29.68,8,2,11,0.00
2013-6-29,74,67,62,63,60,56,95,79,59,29.93,29.72,7,1,12,0.01
2013-6-30,77,66,55,59,52,42,97,64,29,30.15,29.93,11,2,12,0.00
2013-7-1,82,68,54,57,51,44,83,55,35,30.27,30.16,4,1,9,0.00
2013-7-2,74,63,50,53,48,43,90,61,38,30.27,30.19,4,1,9,0.00
2013-7-3,80,69,59,59,55,52,88,64,47,30.23,30.12,4,0,6,0.00
2013-7-4,82,70,63,66,62,57,94,77,54,30.20,30.12,4,1,8,0.00
2013-7-5,87,75,64,68,63,58,94,69,43,30.17,30.09,5,1,11,0.00
2013-7-6,86,74,64,68,63,59,91,70,43,30.15,30.05,5,1,9,0.00
2013-7-7,90,76,66,70,67,63,94,73,43,30.09,30.00,4,0,7,0.00
2013-7-8,79,71,67,73,68,66,98,91,75,30.08,30.00,6,1,10,0.57
2013-7-9,83,72,66,71,68,65,99,88,67,30.10,29.83,4,0,8,0.05
2013-7-10,73,69,60,71,63,57,96,81,59,30.07,29.82,17,5,18,0.01
2013-7-11,75,65,58,61,58,53,98,80,46,30.21,30.07,6,1,11,0.00
2013-7-12,88,67,55,63,57,43,99,74,25,30.30,30.20,4,1,7,0.01
2013-7-13,85,72,58,66,61,57,97,71,45,30.30,30.22,5,1,8,0.00
2013-7-14,88,74,61,67,64,59,94,73,43,30.35,30.30,7,1,9,0.00
2013-7-15,92,78,66,71,67,65,98,72,41,30.39,30.32,3,0,7,0.00
2013-7-16,93,81,68,76,71,65,96,74,51,30.38,30.28,5,1,7,0.00
2013-7-17,91,83,74,77,74,69,95,75,49,30.32,30.20,6,1,8,0.00
2013-7-18,92,83,73,76,74,71,95,74,55,30.21,29.90,5,1,14,0.00
2013-7-19,86,80,68,75,71,62,87,74,64,29.90,29.74,15,3,21,0.13
2013-7-20,71,66,57,64,56,47,95,73,46,30.12,29.85,13,2,13,0.00
2013-7-21,76,64,52,60,52,45,96,69,36,30.16,30.04,4,0,8,0.00
2013-7-22,88,74,60,71,64,56,92,72,53,30.04,29.74,3,1,8,0.00
2013-7-23,76,64,56,68,57,46,98,80,64,30.07,29.73,13,4,19,0.58
2013-7-24,71,61,50,53,50,46,93,68,48,30.19,30.07,6,1,8,0.00
2013-7-25,80,66,52,59,55,50,98,71,45,30.20,30.08,3,0,7,0.00
2013-7-26,80,67,59,67,60,51,97,80,60,30.09,29.93,4,1,12,0.22
2013-7-27,63,58,56,61,56,52,98,91,79,29.97,29.91,8,2,11,0.02
2013-7-28,63,58,54,56,54,52,97,86,69,30.01,29.87,7,2,13,0.19
2013-7-29,69,60,55,58,56,53,98,86,57,30.29,30.02,9,2,13,0.06
2013-7-30,77,64,54,62,57,53,99,80,53,30.34,30.21,4,0,4,0.01
2013-7-31,79,69,62,67,62,58,92,80,60,30.22,29.99,3,0,7,0.00
2013-8-1,74,67,60,63,59,54,98,77,54,30.01,29.97,7,2,11,0.00
2013-8-2,73,66,60,64,59,57,95,81,57,30.04,29.91,11,2,14,0.07
2013-8-3,69,63,56,59,56,53,98,78,61,30.22,30.04,8,2,13,0.00
2013-8-4,69,62,54,57,52,44,95,72,41,30.33,30.22,6,1,9,0.00
2013-8-5,71,61,50,61,54,49,98,80,53,30.24,30.00,1,0,5,0.01
2013-8-6,79,70,60,69,63,56,94,81,68,30.01,29.89,2,0,6,0.00
2013-8-7,75,68,58,69,63,55,98,85,67,30.10,29.75,8,2,22,0.49
2013-8-8,74,63,52,58,54,50,99,75,45,30.17,30.10,5,1,8,0.01
2013-8-9,74,64,54,62,57,53,98,78,53,30.16,30.03,9,2,16,0.00
2013-8-10,71,63,53,58,54,50,98,75,51,30.26,30.16,6,1,9,0.00
2013-8-11,77,66,57,62,59,55,97,78,52,30.23,30.14,6,1,9,0.00
2013-8-12,78,65,57,65,60,53,99,85,58,30.16,29.98,7,1,13,0.15
2013-8-13,63,58,52,53,49,46,87,72,55,30.25,30.08,11,2,15,0.00
2013-8-14,67,58,51,55,50,47,98,76,49,30.31,30.23,11,2,11,0.00
2013-8-15,75,63,52,58,52,48,92,70,43,30.25,30.18,10,2,10,0.00
2013-8-16,82,66,54,63,56,53,98,75,39,30.30,30.23,5,1,7,0.00
2013-8-17,83,68,56,61,56,50,99,71,33,30.37,30.28,6,1,11,0.01
2013-8-18,83,68,56,60,57,55,94,70,41,30.33,30.19,8,1,12,0.00
2013-8-19,79,69,59,65,61,56,92,75,52,30.20,30.09,6,1,12,0.00
2013-8-20,83,74,65,69,65,62,93,75,54,30.16,30.09,6,1,8,0.00
2013-8-21,87,76,68,71,68,64,92,76,56,30.12,29.98,4,1,8,0.00
2013-8-22,77,70,60,68,62,55,98,78,47,30.23,30.03,6,2,8,0.03
2013-8-23,78,66,55,62,58,54,99,79,45,30.32,30.23,6,1,9,0.01
2013-8-24,82,68,56,62,58,54,96,73,43,30.39,30.30,5,1,8,0.00
2013-8-25,85,75,63,71,65,57,84,72,59,30.31,30.10,6,2,9,0.00
2013-8-26,89,77,69,72,69,67,96,78,51,30.15,30.03,10,2,15,0.14
2013-8-27,73,70,68,71,69,67,98,96,89,30.09,29.93,8,0,16,2.89
2013-8-28,80,71,66,73,69,65,99,92,72,30.14,29.95,5,1,7,0.01
2013-8-29,90,74,63,75,68,63,99,83,51,30.19,30.05,5,0,6,0.01
2013-8-30,77,72,67,72,68,65,93,88,80,30.06,29.86,12,2,15,0.09
2013-8-31,80,70,62,67,64,62,99,85,57,29.99,29.91,5,1,8,0.01
2013-9-1,82,69,62,69,65,60,99,87,60,29.96,29.77,5,1,13,0.02
2013-9-2,64,60,56,60,55,52,95,86,73,30.07,29.90,13,6,17,0.04
2013-9-3,71,63,54,58,55,52,97,75,54,30.15,30.06,9,3,13,0.00
2013-9-4,67,62,53,63,57,48,98,83,57,30.28,30.05,7,2,11,0.00
2013-9-5,67,57,49,49,46,42,94,69,43,30.44,30.28,5,0,9,0.00
2013-9-6,78,63,48,63,55,47,98,76,55,30.36,30.07,3,0,5,0.00
2013-9-7,77,71,67,70,66,60,93,85,73,30.11,29.96,4,1,7,0.05
2013-9-8,73,65,57,64,56,51,94,74,49,30.25,30.11,4,0,10,0.00
2013-9-9,78,67,56,71,61,49,92,83,67,30.15,29.83,2,0,5,0.01
2013-9-10,86,78,70,73,70,66,91,77,61,30.05,29.82,7,1,11,0.00
2013-9-11,77,70,65,70,66,64,99,88,71,30.07,30.00,6,1,9,1.21
2013-9-12,70,62,51,67,56,47,97,82,66,30.20,30.02,7,2,14,0.01
2013-9-13,59,52,46,49,44,40,97,77,57,30.32,30.19,8,2,13,0.08
2013-9-14,67,55,44,54,48,43,98,81,55,30.30,30.14,3,1,8,0.01
2013-9-15,60,58,52,57,54,47,94,89,83,30.33,30.10,5,1,9,0.18
2013-9-16,62,51,44,46,42,39,91,73,48,30.55,30.34,6,1,9,0.00
2013-9-17,71,53,42,53,45,40,97,78,38,30.54,30.31,5,0,6,0.00
2013-9-18,78,62,48,63,55,47,97,80,56,30.30,30.05,4,0,7,0.00
2013-9-19,82,70,62,72,66,60,97,88,70,30.07,29.84,4,0,10,0.81
2013-9-20,71,68,61,67,65,57,97,91,83,29.86,29.76,6,1,13,0.06
2013-9-21,61,56,51,57,50,43,96,82,70,30.04,29.82,11,4,15,0.04
2013-9-22,54,50,48,45,42,40,85,73,61,30.24,30.05,5,1,8,0.00
2013-9-23,66,51,40,50,44,39,97,78,50,30.33,30.24,4,0,8,0.00
2013-9-24,69,54,44,53,48,42,97,81,51,30.29,30.14,2,0,7,0.01
2013-9-25,74,56,44,55,50,44,99,83,46,30.18,30.11,4,0,8,0.01
2013-9-26,73,57,47,58,50,39,99,81,32,30.25,30.15,4,0,5,0.01
2013-9-27,81,61,48,58,52,47,99,76,41,30.33,30.24,4,0,7,0.01
2013-9-28,80,66,53,60,55,51,94,71,44,30.26,29.94,4,1,9,0.00
2013-9-29,72,60,49,63,52,46,97,77,47,30.14,29.94,9,3,16,0.15
2013-9-30,72,56,44,56,50,44,99,82,46,30.13,29.98,2,0,6,0.01
2013-10-1,78,66,55,65,59,49,92,80,57,30.00,29.84,5,1,14,0.00
2013-10-2,69,61,51,59,49,41,93,67,37,30.20,29.98,10,2,13,0.00
2013-10-3,72,58,49,61,54,43,98,87,65,30.18,30.02,2,0,10,1.21
2013-10-4,62,60,57,62,59,56,99,97,94,30.19,30.01,5,0,6,0.13
2013-10-5,66,60,57,61,58,56,98,93,83,30.19,29.96,9,1,14,1.16
2013-10-6,65,59,51,65,58,49,99,95,81,29.94,29.75,5,1,14,0.22
2013-10-7,60,53,45,52,49,44,98,87,65,30.20,29.70,14,3,17,0.43
2013-10-8,72,55,43,54,48,42,99,80,41,30.33,30.20,5,0,8,0.01
2013-10-9,75,61,51,59,53,48,92,76,50,30.37,30.28,3,0,5,0.00
2013-10-10,76,55,45,55,49,44,98,82,43,30.34,30.23,3,0,5,0.01
2013-10-11,73,56,46,54,48,46,99,78,40,30.28,30.15,6,0,8,0.01
2013-10-12,77,62,51,61,53,44,96,73,51,30.17,30.03,5,1,10,0.03
2013-10-13,60,54,48,52,48,44,90,79,70,30.52,30.17,8,2,12,0.00
2013-10-14,61,49,42,47,42,37,98,80,44,30.60,30.41,5,0,7,0.00
2013-10-15,60,51,42,58,48,41,98,90,72,30.41,29.83,4,1,10,0.21
2013-10-16,58,53,51,57,50,43,98,88,75,29.99,29.81,13,3,14,0.05
2013-10-17,52,49,40,46,42,39,96,79,67,30.00,29.88,4,1,7,0.00
2013-10-18,58,47,40,49,44,39,98,90,67,29.95,29.89,6,1,11,0.19
2013-10-19,52,46,40,46,40,34,97,82,53,29.95,29.83,10,2,13,0.37
2013-10-20,53,44,38,44,40,37,98,87,56,29.97,29.80,4,0,7,0.29
2013-10-21,51,45,36,49,40,29,98,84,67,29.94,29.78,11,4,17,0.20
2013-10-22,46,41,35,39,36,31,97,84,68,30.04,29.86,18,5,19,0.34
2013-10-23,44,38,32,37,34,30,98,86,58,30.05,30.00,14,3,17,0.20
2013-10-24,46,41,35,37,34,31,96,77,59,30.31,30.04,13,5,16,0.26
2013-10-25,47,41,35,42,35,31,97,80,60,30.40,29.95,14,3,15,0.34
2013-10-26,51,46,42,43,39,33,89,76,68,30.11,29.76,15,7,21,0.13
2013-10-27,49,45,42,40,36,32,81,71,64,30.11,30.00,9,2,15,0.00
2013-10-28,46,39,31,39,30,25,86,72,56,30.62,30.13,6,1,15,0.00
2013-10-29,43,34,28,34,25,-100,95,76,53,30.64,30.38,4,-33,6,0.00
2013-10-30,62,48,38,50,42,34,95,80,56,30.38,29.96,3,0,7,0.09
2013-10-31,62,56,52,60,55,52,99,97,94,29.87,29.17,6,0,8,0.79
2013-11-1,53,48,42,53,46,41,98,93,86,29.81,29.14,17,5,22,0.57
2013-11-2,42,40,35,41,37,32,98,89,72,30.30,29.81,3,0,6,0.06
2013-11-3,47,39,33,34,32,28,91,77,58,30.52,30.30,6,1,11,0.00
2013-11-4,51,44,36,36,32,29,85,67,49,30.53,30.29,10,2,15,0.00
2013-11-5,58,52,48,50,46,37,96,83,64,30.40,30.13,3,0,6,0.07
2013-11-6,53,47,38,53,45,32,98,92,74,30.14,29.79,12,4,20,0.81
2013-11-7,40,38,34,34,31,29,95,77,70,30.24,30.15,12,6,16,0.06
2013-11-8,42,38,34,33,30,25,90,71,56,30.38,30.20,11,3,13,0.02
2013-11-9,48,43,37,44,38,30,95,83,66,30.19,29.80,20,6,24,0.20
2013-11-10,43,41,37,37,34,30,88,76,65,30.36,29.99,20,8,25,0.00
2013-11-11,42,34,29,37,28,18,95,81,63,30.55,30.14,17,5,22,0.28
2013-11-12,31,27,28,25,13,-100,86,68,65,30.74,30.56,15,-69,17,0.00
2013-11-13,43,31,27,33,7,-100,90,60,58,30.62,30.07,15,-165,19,0.03
2013-11-14,45,42,38,38,34,30,86,73,65,30.11,29.97,8,2,12,0.00
2013-11-15,53,43,36,42,38,35,95,83,64,30.08,29.99,3,0,6,0.00
2013-11-16,54,47,37,53,44,35,96,88,83,30.10,29.66,7,1,16,0.17
2013-11-17,59,54,44,59,53,39,99,95,83,29.67,29.15,21,3,31,1.39
2013-11-18,44,38,34,39,30,24,86,74,66,30.30,29.46,25,13,30,0.00
2013-11-19,39,33,30,27,24,-100,85,71,61,30.52,30.31,13,-8,15,0.00
2013-11-20,48,37,31,30,26,24,76,65,42,30.49,30.33,6,1,12,0.00
2013-11-21,43,40,36,40,37,29,97,89,68,30.35,30.30,1,0,6,0.05
2013-11-22,40,33,29,40,30,22,97,90,65,30.54,30.33,8,2,14,0.10
2013-11-23,32,23,19,27,17,12,94,78,64,30.73,30.42,18,9,27,0.00
2013-11-24,27,21,20,22,14,12,84,74,67,30.75,30.31,13,5,20,0.00
2013-11-25,35,32,27,32,27,20,96,84,66,30.30,30.05,12,3,17,0.00
2013-11-26,36,30,23,33,28,17,96,91,77,30.24,30.08,6,1,8,0.03
2013-11-27,26,23,21,20,17,12,88,77,57,30.36,30.18,8,2,15,0.00
2013-11-28,26,22,19,23,19,14,91,88,81,30.60,30.36,7,1,11,0.00
2013-11-29,34,24,16,27,21,15,95,87,71,30.79,30.61,4,0,9,0.00
2013-11-30,39,33,24,35,29,20,94,86,79,30.62,30.17,5,1,11,0.01
2013-12-1,37,34,32,33,31,30,93,89,78,30.26,30.16,3,0,5,0.00
2013-12-2,40,34,32,31,29,27,92,83,63,30.15,30.03,2,0,6,0.02
2013-12-3,32,31,30,31,26,23,96,83,70,30.10,30.03,6,1,13,0.00
2013-12-4,45,37,32,44,36,31,98,95,92,30.05,29.57,5,1,12,0.35
2013-12-5,47,32,22,45,27,16,98,82,75,30.29,29.57,14,7,23,0.00
2013-12-6,22,19,18,16,7,-100,86,73,70,30.55,30.28,14,-59,16,0.00
2013-12-7,20,18,17,15,11,9,88,76,69,30.75,30.56,12,5,16,0.00
2013-12-8,22,18,16,20,13,9,92,81,73,30.73,30.19,6,1,12,0.00
2013-12-9,28,21,11,25,18,7,94,87,70,30.21,29.97,16,4,23,0.00
2013-12-10,18,14,10,15,10,7,89,84,73,30.29,29.98,13,4,19,0.00
2013-12-11,15,13,11,11,8,5,87,79,71,30.55,30.29,13,7,17,0.00
2013-12-12,20,14,9,14,10,6,90,83,72,30.55,30.27,12,4,15,0.00
2013-12-13,20,17,11,16,9,1,86,73,65,30.57,30.27,11,2,14,0.00
2013-12-14,21,16,10,17,12,2,93,84,68,30.57,30.08,6,1,12,0.00
2013-12-15,21,19,17,19,15,12,95,86,74,30.16,29.93,13,5,19,0.00
2013-12-16,22,16,12,14,12,8,90,82,67,30.33,30.11,9,1,9,0.00
2013-12-17,27,22,16,23,19,14,95,89,83,30.11,29.97,8,1,10,0.00
2013-12-18,26,23,21,23,18,16,95,81,75,30.20,29.90,9,2,14,0.00
2013-12-19,31,25,20,27,22,18,96,87,80,30.26,29.89,4,1,8,0.00
2013-12-20,26,24,22,23,21,20,93,90,86,30.16,30.00,4,1,8,0.00
2013-12-21,31,27,25,26,25,23,96,89,81,30.12,29.98,4,0,10,0.00
2013-12-22,26,23,18,23,20,16,93,89,86,30.21,29.91,7,1,13,0.00
2013-12-23,21,18,15,17,15,9,93,87,78,30.51,30.22,0,0,0,0.00
2013-12-24,17,13,8,12,9,6,91,84,77,30.66,30.50,0,0,0,0.00
2013-12-25,24,20,14,21,17,11,94,89,84,30.56,30.19,0,0,0,0.00
2013-12-26,23,21,16,20,18,15,95,88,73,30.37,30.15,0,0,1,0.00
2013-12-27,36,25,15,32,22,13,94,89,81,30.41,30.04,6,1,14,0.00
2013-12-28,47,36,32,37,33,30,93,86,67,30.15,29.88,7,1,13,0.40
2013-12-29,35,23,13,33,20,8,96,87,72,30.23,29.83,11,4,18,0.00
2013-12-30,14,12,10,9,8,6,89,82,72,30.42,30.24,8,2,15,0.00
2013-12-31,10,10,9,7,4,2,89,80,72,30.53,30.22,14,6,20,0.00
2014-1-1,14,11,9,9,5,2,84,77,69,30.63,30.53,5,1,8,0.00
2014-1-2,14,10,7,7,3,1,86,75,66,30.57,30.47,6,1,10,0.00